Happy Valentine's Day! 

Flight Track Log - Related Links

Times and Time Zones

All times are in EDT time to prevent confusion due to time zone crossing. See the SWA975 flight status page for this flight to view local times or setup timezone preferences in your user account.


Time Position Orientation Groundspeed Altitude Reporting Facility
EDT Latitude Longitude Course Direction KTS MPH feet Rate Location/Type
Sat 02:10:28 PM 28.0500 -82.5333 360° North 205 236 2,900  Level Tampa TRACON
Sat 02:12:31 PM 28.1706 -82.5983 335° Northwest 272 313 7,700 2,656 Climbing Jacksonville Center
Sat 02:13:31 PM 28.2353 -82.6475 326° Northwest 272 313 11,000 3,400 Climbing Jacksonville Center
Sat 02:14:31 PM 28.3042 -82.7039 324° Northwest 289 333 14,500 3,124 Climbing Jacksonville Center
Sat 02:15:32 PM 28.3731 -82.7581 325° Northwest 294 338 17,300 2,050 Climbing Jacksonville Center
Sat 02:16:31 PM 28.4650 -82.7958 340° North 360 414 18,600 1,950 Climbing Jacksonville Center
Sat 02:17:32 PM 28.5839 -82.8192 350° North 367 422 21,200 2,331 Climbing Jacksonville Center
Sat 02:18:32 PM 28.6861 -82.8381 351° North 398 458 23,300 1,815 Climbing Jacksonville Center
Sat 02:19:31 PM 28.8031 -82.8667 348° North 414 476 24,800 1,600 Climbing Jacksonville Center
Sat 02:20:32 PM 28.9242 -82.8925 349° North 426 490 26,500 1,550 Climbing Jacksonville Center
Sat 02:21:31 PM 29.0514 -82.9233 348° North 446 513 27,900 1,450 Climbing Jacksonville Center
Sat 02:22:32 PM 29.1808 -82.9519 349° North 457 526 29,400 1,041 Climbing Jacksonville Center
Sat 02:23:32 PM 29.3125 -82.9831 348° North 468 539 30,000 300 Climbing Jacksonville Center
Sat 02:24:32 PM 29.4439 -83.0142 348° North 473 544 30,000  Level Jacksonville Center
Sat 02:25:31 PM 29.5775 -83.0456 348° North 480 552 30,000 500 Level Jacksonville Center
Sat 02:26:32 PM 29.7006 -83.0958 340° North 475 547 31,000 1,300 Climbing Jacksonville Center
Sat 02:27:31 PM 29.8236 -83.1558 337° Northwest 469 540 32,600 1,650 Climbing Jacksonville Center
Sat 02:28:32 PM 29.9425 -83.2114 338° Northwest 469 540 34,300 1,850 Climbing Jacksonville Center
Sat 02:29:31 PM 30.0739 -83.2694 339° North 469 540 36,300 1,613 Climbing Jacksonville Center
Sat 02:30:31 PM 30.1928 -83.3253 338° Northwest 463 533 37,500 850 Climbing Jacksonville Center
Sat 02:31:31 PM 30.3094 -83.3811 338° Northwest 458 527 38,000 250 Climbing Jacksonville Center
Sat 02:32:31 PM 30.4283 -83.4203 344° North 452 520 38,000  Level Jacksonville Center
Sat 02:33:31 PM 30.5556 -83.4569 346° North 452 520 38,000  Level Jacksonville Center
Sat 02:34:31 PM 30.6786 -83.4964 345° North 452 520 38,000  Level Jacksonville Center
Sat 02:35:32 PM 30.8036 -83.5336 346° North 452 520 38,000  Level Jacksonville Center
Sat 02:37:29 PM 31.0300 -83.6075 344° North 450 518 38,000  Level Atlanta Center
Sat 02:38:29 PM 31.1533 -83.6483 344° North 456 525 38,000  Level Atlanta Center
Sat 02:39:29 PM 31.2786 -83.6867 345° North 456 525 38,000  Level Atlanta Center
Sat 02:40:29 PM 31.4019 -83.7250 345° North 456 525 38,000  Level Atlanta Center
Sat 02:41:29 PM 31.5272 -83.7636 345° North 456 525 38,000  Level Atlanta Center
Sat 02:42:29 PM 31.6503 -83.7972 347° North 456 525 38,000  Level Atlanta Center
Sat 02:43:29 PM 31.7903 -83.8458 344° North 456 525 38,000  Level Atlanta Center
Sat 02:44:29 PM 31.9136 -83.8847 345° North 456 525 38,000  Level Atlanta Center
Sat 02:45:29 PM 32.0347 -83.9236 345° North 451 519 38,000  Level Atlanta Center
Sat 02:46:29 PM 32.1597 -83.9628 345° North 451 519 38,000  Level Atlanta Center
Sat 02:47:29 PM 32.2872 -84.0044 345° North 461 531 38,000  Level Atlanta Center
Sat 02:48:29 PM 32.4125 -84.0439 345° North 461 531 38,000  Level Atlanta Center
Sat 02:49:29 PM 32.5378 -84.0856 344° North 461 531 38,000  Level Atlanta Center
Sat 02:50:29 PM 32.6669 -84.1253 345° North 461 531 38,000  Level Atlanta Center
Sat 02:51:29 PM 32.7944 -84.1650 345° North 466 536 38,000  Level Atlanta Center
Sat 02:52:29 PM 32.9217 -84.2072 344° North 471 542 38,000  Level Atlanta Center
Sat 02:53:29 PM 33.0511 -84.2494 345° North 471 542 38,000  Level Atlanta Center
Sat 02:54:29 PM 33.1783 -84.2919 344° North 471 542 38,000  Level Atlanta Center
Sat 02:55:29 PM 33.3075 -84.3322 345° North 471 542 38,000  Level Atlanta Center
Sat 02:56:29 PM 33.4203 -84.3697 344° North 471 542 38,000  Level Atlanta Center
Sat 02:57:29 PM 33.5494 -84.4128 344° North 471 542 38,000  Level Atlanta Center
Sat 02:58:29 PM 33.6872 -84.4533 346° North 471 542 38,000  Level Atlanta Center
Sat 02:59:29 PM 33.8164 -84.4839 349° North 477 549 38,000  Level Atlanta Center
Sat 03:00:29 PM 33.9500 -84.5144 349° North 469 540 38,000  Level Atlanta Center
Sat 03:01:29 PM 34.0667 -84.5428 349° North 474 545 38,000  Level Atlanta Center
Sat 03:02:29 PM 34.2106 -84.5764 349° North 479 551 38,000  Level Atlanta Center
Sat 03:03:29 PM 34.3419 -84.6072 349° North 467 537 38,000  Level Atlanta Center
Sat 03:04:29 PM 34.4525 -84.6333 349° North 467 537 38,000  Level Atlanta Center
Sat 03:05:29 PM 34.5817 -84.6669 348° North 467 537 38,000  Level Atlanta Center
Sat 03:06:29 PM 34.7150 -84.6983 349° North 456 525 38,000  Level Atlanta Center
Sat 03:07:29 PM 34.8422 -84.7322 348° North 456 525 38,000  Level Atlanta Center
Sat 03:08:29 PM 34.9714 -84.7636 349° North 456 525 38,000  Level Atlanta Center
Sat 03:09:29 PM 35.0964 -84.7953 348° North 461 531 38,000  Level Atlanta Center
Sat 03:10:29 PM 35.2233 -84.8244 349° North 461 531 38,000 -50 Level Atlanta Center
Sat 03:11:29 PM 35.3483 -84.8536 349° North 461 531 37,900 -550 Descending Atlanta Center
Sat 03:12:29 PM 35.4736 -84.8625 357° North 455 524 36,900 -950 Descending Atlanta Center
Sat 03:13:29 PM 35.6050 -84.8664 359° North 460 529 36,000 -450 Descending Atlanta Center
Sat 03:14:29 PM 35.7342 -84.8703 359° North 466 536 36,000  Level Atlanta Center
Sat 03:15:29 PM 35.8761 -84.8742 359° North 479 551 36,000 -516 Level Atlanta Center
Sat 03:17:35 PM 36.1436 -84.8872 358° North 466 536 34,400 -834 Descending Indianapolis Center
Sat 03:18:36 PM 36.2700 -84.8922 358° North 457 526 33,400 -1,024 Descending Indianapolis Center
Sat 03:19:38 PM 36.3894 -84.9014 356° North 433 498 32,300 -1,024 Descending Indianapolis Center
Sat 03:20:39 PM 36.5011 -84.9222 351° North 410 472 31,300 -976 Descending Indianapolis Center
Sat 03:21:41 PM 36.6111 -84.9431 351° North 400 460 30,300 -976 Descending Indianapolis Center
Sat 03:22:42 PM 36.7219 -84.9583 354° North 401 461 29,300 -1,122 Descending Indianapolis Center
Sat 03:23:44 PM 36.8558 -84.9561 North 400 460 28,000 -1,707 Descending Indianapolis Center
Sat 03:24:45 PM 36.9661 -84.9556 360° North 399 459 25,800 -2,341 Descending Indianapolis Center
Sat 03:25:47 PM 37.0750 -84.9542 North 394 453 23,200 -2,585 Descending Indianapolis Center
Sat 03:26:48 PM 37.1847 -84.9542 360° North 394 453 20,500 -2,634 Descending Indianapolis Center
Sat 03:27:50 PM 37.2944 -84.9547 360° North 391 450 17,800 -2,439 Descending Indianapolis Center
Sat 03:28:51 PM 37.4025 -84.9542 360° North 387 445 15,500 -2,146 Descending Indianapolis Center
Sat 03:29:53 PM 37.5069 -84.9544 360° North 378 435 13,400 -1,805 Descending Indianapolis Center
Sat 03:30:54 PM 37.6044 -84.9536 360° North 356 410 11,800 -1,659 Descending Indianapolis Center
Sat 03:31:56 PM 37.6900 -85.0022 336° Northwest 305 351 10,000 -878 Descending Indianapolis Center
Sat 03:32:57 PM 37.7411 -85.0736 312° West 274 315 10,000  Level Indianapolis Center
Sat 03:33:59 PM 37.7903 -85.1414 313° West 264 304 10,000 -49 Level Indianapolis Center
Sat 03:35:00 PM 37.8369 -85.1967 317° Northwest 266 306 9,900 -885 Descending Indianapolis Center
Sat 03:36:01 PM 37.9039 -85.2678 320° Northwest 255 293 8,200 -1,765 Descending FAA TRACON SMA TRACON (SMA)
Sat 03:36:25 PM 37.9244 -85.2906 319° Northwest 255 293 7,400 -1,957 Descending FAA TRACON SMA TRACON (SMA)
Sat 03:36:47 PM 37.9450 -85.3139 318° Northwest 257 296 6,700 -1,500 Descending FAA TRACON SMA TRACON (SMA)
Sat 03:37:05 PM 37.9569 -85.3283 316° Northwest 260 299 6,400 -1,235 Descending FAA TRACON SMA TRACON (SMA)
Sat 03:37:21 PM 37.9733 -85.3469 318° Northwest 257 296 6,000 -1,135 Descending FAA TRACON SMA TRACON (SMA)
Sat 03:37:42 PM 37.9894 -85.3653 318° Northwest 253 291 5,700 -1,171 Descending FAA TRACON SMA TRACON (SMA)
Sat 03:38:02 PM 38.0089 -85.3878 318° Northwest 248 285 5,200 -1,231 Descending FAA TRACON SMA TRACON (SMA)
Sat 03:38:21 PM 38.0242 -85.4061 317° Northwest 246 283 4,900 -1,231 Descending FAA TRACON SMA TRACON (SMA)
Sat 03:38:41 PM 38.0397 -85.4236 318° Northwest 243 280 4,400 -1,350 Descending FAA TRACON SMA TRACON (SMA)
Sat 03:39:01 PM 38.0586 -85.4458 317° Northwest 241 277 4,000 -585 Descending FAA TRACON SMA TRACON (SMA)
Sat 03:39:22 PM 38.0731 -85.4633 316° Northwest 236 272 4,000  Level FAA TRACON SMA TRACON (SMA)
Sat 03:39:41 PM 38.0869 -85.4792 318° Northwest 222 255 4,000  Level FAA TRACON SMA TRACON (SMA)
Sat 03:40:02 PM 38.1028 -85.4972 318° Northwest 202 232 4,000 -150 Level FAA TRACON SMA TRACON (SMA)
Sat 03:40:21 PM 38.1125 -85.5122 309° West 186 214 3,900 -615 Descending FAA TRACON SMA TRACON (SMA)
Sat 03:40:41 PM 38.1197 -85.5303 297° West 184 212 3,600 -900 Descending FAA TRACON SMA TRACON (SMA)
Sat 03:41:01 PM 38.1256 -85.5533 288° West 183 211 3,300 -900 Descending FAA TRACON SMA TRACON (SMA)
Sat 03:41:21 PM 38.1272 -85.5728 276° West 184 212 3,000 -1,024 Descending FAA TRACON SMA TRACON (SMA)
Sat 03:41:42 PM 38.1336 -85.5956 290° West 179 206 2,600 -900 Descending FAA TRACON SMA TRACON (SMA)
Sat 03:42:01 PM 38.1394 -85.6133 293° West 178 205 2,400 -462 Descending FAA TRACON SMA TRACON (SMA)
Sat 03:42:21 PM 38.1447 -85.6317 290° West 178 205 2,300 -750 Descending FAA TRACON SMA TRACON (SMA)
Sat 03:42:41 PM 38.1500 -85.6500 290° West 178 205 1,900 -1,200 Descending FAA TRACON SMA TRACON (SMA)
Sat 03:43:01 PM 38.1564 -85.6708 291° West 168 193 1,500 -878 Descending FAA TRACON SMA TRACON (SMA)
Sat 03:43:22 PM 38.1611 -85.6853 293° West 151 174 1,300 -750 Descending FAA TRACON SMA TRACON (SMA)
Sat 03:43:41 PM 38.1656 -85.6989 293° West 137 158 1,000 -923 Descending FAA TRACON SMA TRACON (SMA)
Sat 03:44:01 PM 38.1708 -85.7156 292° West 132 152 700 -900 Descending FAA TRACON SMA TRACON (SMA)

Login

Don't have an account? Register now (free) for customized features, flight alerts, and more!